19:35
Airports
History
Links
Donate
Help keep this website running!
PayPal
Bitcoin
Information on this page is community maintained and may be outdated or inaccurate and is intended for reference only or PC simulator navigating.
Always use approved charts for navigating.
LIQB
Arezzo
Arezzo (LIQB)
Arezzo, Toscana, Italy (52100)
4
Lat/Lng:43° 27' 19" N / 11° 50' 50" E
43.455277 / 11.847222
Elevation:814'ft 248mMSL
ID / ICAO:LIQB
Runways:1
Longest:(12-30) 756.4m 2,482ft Grass
Distance To
Airport ID:
Nearby VORs <50NM
Nearby NDBs
METARUpdated 03-06-16 11:07 GMT
Altimeter: 29.59
Visibility: 6.2 statute miles
Wind: 9 knots (170°)
Temp: 11°c 52°f
Humidity: 66.5%

METAR: LIQB 061107Z 17009KT 9999 TS FEW025CB SCT027TCU 11/05 Q1002 RMK BKN VIS MIN 9999

(Powered by phpweather)
Runway 12 / 30
Dimensions:756.4 x 60.1m 2482' x 197'ft
Surface:Grass
Runway 12 [A]Runway 30 [B]
Heading:119°TH 299°TH
Lat:
Lng:
43° 27' 25.07"N
11° 50' 35.51"E
43° 27' 12.92"N
11° 51' 4.49"E
User Notes and Comments
Google Map
Nearby Airports
(U) AMPUGNANO 32.8 NM
LIQS WSW 245°
(C) Firenze 40.4 NM
LIRQ (WX) NW 307°
(C) PERUGIA 41.7 NM
LIRZ (WX) SE 126°
(C) FORLI 52.3 NM
LIPK (WX) NNE 12°
(C) Rimini Mil 54.6 NM
LIPR (WX) NE 44°
4 Foligno 56.5 NM
LIAF SE 129°
(C) CERVIA 57.9 NM
LIPC (WX) NNE 23°
VFR Chart
Flight Planning at SkyVector.com